Impacts METAR Board
IDs:

KMSP - Minneapolis-St Paul, MN, US

Updated at: 0100 UTC 16 Oct 2018
Potential Impact None Slight Moderate High
Time 15/13Z 15/14Z 15/15Z 15/16Z 15/17Z 15/18Z 15/19Z 15/20Z 15/21Z 15/22Z 15/23Z 16/00Z 16/01Z
Temp31 33 36 37 39 41 43 44 45 45 44 42 41
Dewpt23 26 26 26 27 26 26 26 25 23 22 23 25
Altim30.18 30.20 30.20 30.21 30.21 30.20 30.18 30.15 30.14 30.14 30.13 30.11 30.09
VIS10 10 10 10 10 10 10 10 10 10 10 10 10
CIG-- 26 -- -- -- -- -- -- -- -- -- -- --
CoverFEWBKNSCTSCTFEWSCTFEWFEWFEWCLRCLRCLRCLR
FltCatVFRMVFRVFRVFRVFRVFRVFRVFRVFRVFRVFRVFRVFR
WX--------------------------
WDir290290300270260290280270260240240210220
WSpd5 10 12 8 10 13 6 11 14 14 10 6 7
WGst-- -- -- -- -- 17 17 -- 20 25 18 -- --
Raw hourly METARs
KMSP 151253Z 29005KT 10SM FEW032 M01/M05 A3018 RMK AO2 SLP228 T10061050
KMSP 151353Z 29010KT 10SM BKN026 01/M03 A3020 RMK AO2 SLP236 T00061033
KMSP 151453Z 30012KT 10SM SCT024 02/M03 A3020 RMK AO2 SLP237 T00221033 53009
KMSP 151604Z 27008KT 10SM SCT026 03/M03 A3021 RMK AO2 T00281033
KMSP 151653Z 26010KT 10SM FEW029 04/M03 A3021 RMK AO2 SLP237 T00391028
KMSP 151753Z 29013G17KT 10SM SCT034 05/M03 A3020 RMK AO2 SLP233 T00501033 10050 21006 58003
KMSP 151853Z 28006G17KT 10SM FEW035 06/M03 A3018 RMK AO2 SLP226 T00611033
KMSP 151953Z 27011KT 10SM FEW035 07/M03 A3015 RMK AO2 SLP218 T00671033
KMSP 152053Z 26014G20KT 10SM FEW045 07/M04 A3014 RMK AO2 SLP215 T00721039 56017
KMSP 152153Z 24014G25KT 10SM CLR 07/M05 A3014 RMK AO2 PK WND 21026/2104 SLP212 T00721050
KMSP 152253Z 24010G18KT 10SM CLR 07/M06 A3013 RMK AO2 SLP209 T00671056
KMSP 152353Z 21006KT 10SM CLR 06/M05 A3011 RMK AO2 SLP204 T00561050 10072 20050 58012
KMSP 160053Z 22007KT 10SM CLR 05/M04 A3009 RMK AO2 SLP199 T00501039



Page loaded:  01:07 UTC  |   06:07 PM Pacific  |   07:07 PM Mountain  |   08:07 PM Central  |   09:07 PM Eastern

 

ADVISORIES

FORECASTS

FORECASTS

OBSERVATIONS

USER TOOLS

ABOUT US